Time;durP1;ratioP1;P1;durP2;ratioP2;P2;SDS_P1;SDS_P2;PMS_P1;PMS_P2;Temp;Humidity;BMP_temperature;BMP_pressure;BME280_temperature;BME280_humidity;BME280_pressure;Samples;Min_cycle;Max_cycle;Signal;HPM_P1;HPM_P2
2022/06/16 00:01:40;;;;;;;11.60;6.25;;;;;;;16.91;72.44;99777.34;4966971;28;20030;-95
2022/06/16 00:04:06;;;;;;;8.35;6.20;;;;;;;17.00;72.45;99784.81;4983040;28;20053;-94
2022/06/16 00:06:32;;;;;;;7.95;5.88;;;;;;;17.03;72.63;99800.50;4966994;28;20022;-94
2022/06/16 00:08:57;;;;;;;9.10;5.63;;;;;;;16.88;72.58;99780.66;4966460;28;20026;-94
2022/06/16 00:11:23;;;;;;;9.52;6.03;;;;;;;16.89;73.00;99801.31;4967146;28;20033;-94
2022/06/16 00:13:49;;;;;;;8.73;5.85;;;;;;;16.69;72.91;99780.69;4982942;28;20468;-94
2022/06/16 00:16:14;;;;;;;7.05;5.90;;;;;;;16.75;72.86;99797.72;4967185;28;20022;-94
2022/06/16 00:18:41;;;;;;;7.70;5.55;;;;;;;16.77;73.01;99793.59;4966536;28;20061;-93
2022/06/16 00:21:07;;;;;;;10.00;5.80;;;;;;;16.89;72.61;99806.75;4966097;28;20022;-94
2022/06/16 00:23:32;;;;;;;8.00;5.88;;;;;;;16.90;72.17;99793.94;4966616;28;20129;-93
2022/06/16 00:25:58;;;;;;;8.20;6.00;;;;;;;16.88;72.31;99796.16;4966864;28;20037;-94
2022/06/16 00:28:23;;;;;;;8.07;5.72;;;;;;;16.85;71.85;99788.59;4967028;28;20022;-94
2022/06/16 00:30:49;;;;;;;9.80;6.13;;;;;;;16.83;72.93;99788.09;4983545;28;20026;-93
2022/06/16 00:33:14;;;;;;;8.80;6.05;;;;;;;16.92;72.77;99803.41;4967221;28;20030;-94
2022/06/16 00:35:40;;;;;;;6.82;6.13;;;;;;;16.84;72.90;99801.41;4966556;28;20058;-93
2022/06/16 00:38:05;;;;;;;6.97;6.28;;;;;;;16.81;72.96;99809.34;4966323;28;20037;-94
2022/06/16 00:40:31;;;;;;;7.28;5.85;;;;;;;16.65;72.56;99776.16;4982754;28;20034;-93
2022/06/16 00:42:56;;;;;;;8.00;5.32;;;;;;;16.74;72.38;99790.66;4966353;28;20037;-93
2022/06/16 00:46:00;;;;;;;7.85;5.60;;;;;;;16.79;72.36;99785.16;4965969;28;20025;-93
2022/06/16 00:48:35;;;;;;;9.32;5.90;;;;;;;16.61;72.68;99789.53;4968689;28;20029;-94
2022/06/16 00:51:33;;;;;;;10.35;5.88;;;;;;;16.75;73.09;99803.97;4982152;28;20092;-93
2022/06/16 00:54:07;;;;;;;8.45;6.20;;;;;;;16.49;73.60;99781.84;4995600;28;20064;-93
2022/06/16 00:56:32;;;;;;;13.70;5.72;;;;;;;16.44;73.94;99776.50;4966090;28;20092;-94
2022/06/16 00:59:01;;;;;;;11.45;6.10;;;;;;;16.39;73.91;99773.06;4965581;28;20022;-93
2022/06/16 01:01:27;;;;;;;7.57;6.18;;;;;;;16.50;73.84;99780.75;4966208;28;20120;-93
2022/06/16 01:06:36;;;;;;;9.15;6.07;;;;;;;16.39;73.48;99779.28;4986957;28;20491;-93
2022/06/16 01:09:11;;;;;;;10.80;5.63;;;;;;;16.35;73.97;99772.84;4965363;28;20061;-92
2022/06/16 01:15:01;;;;;;;7.53;6.15;;;;;;;16.39;73.89;99781.22;4987164;28;20207;-94
2022/06/16 01:17:36;;;;;;;7.18;5.43;;;;;;;16.25;73.78;99759.41;4997369;28;20046;-93
2022/06/16 01:20:38;;;;;;;8.05;5.45;;;;;;;16.32;74.44;99773.44;4965696;28;20030;-94
2022/06/16 01:23:04;;;;;;;7.68;5.90;;;;;;;16.44;73.88;99781.13;4983520;28;20030;-94
2022/06/16 01:25:52;;;;;;;10.93;6.68;;;;;;;16.26;73.89;99772.72;4997411;28;20659;-93
2022/06/16 01:28:50;;;;;;;9.43;6.13;;;;;;;16.22;74.11;99768.97;4989854;28;20117;-94
2022/06/16 01:31:25;;;;;;;12.18;5.72;;;;;;;16.16;74.00;99762.00;4986733;28;20037;-94
2022/06/16 01:33:53;;;;;;;9.57;6.03;;;;;;;16.11;73.98;99756.66;4965514;28;20053;-93
2022/06/16 01:36:39;;;;;;;12.70;6.20;;;;;;;16.09;73.68;99751.50;4980477;28;20056;-94
2022/06/16 01:39:13;;;;;;;9.27;5.53;;;;;;;16.14;73.67;99767.75;4965442;28;20026;-94
2022/06/16 01:41:49;;;;;;;8.68;5.70;;;;;;;16.07;74.06;99771.94;4965963;28;20018;-94
2022/06/16 01:44:32;;;;;;;11.18;5.65;;;;;;;16.05;74.32;99763.28;4965364;28;20420;-93
2022/06/16 01:47:01;;;;;;;11.40;6.07;;;;;;;16.11;73.65;99760.19;4965402;28;20022;-93
2022/06/16 01:49:34;;;;;;;9.60;5.95;;;;;;;16.15;73.47;99769.34;4981264;28;20607;-93
2022/06/16 01:52:06;;;;;;;19.38;5.90;;;;;;;15.94;74.23;99754.47;4965566;28;20593;-94
2022/06/16 01:54:38;;;;;;;7.40;5.57;;;;;;;15.92;74.54;99768.34;4964414;28;20026;-92
2022/06/16 01:57:08;;;;;;;8.15;6.03;;;;;;;15.85;74.49;99757.03;4965420;28;20076;-92
2022/06/16 01:59:53;;;;;;;7.50;6.60;;;;;;;15.86;74.86;99766.00;4964823;28;20099;-93
2022/06/16 02:02:19;;;;;;;7.18;5.60;;;;;;;15.86;74.82;99764.09;4981268;28;20137;-93
2022/06/16 02:04:57;;;;;;;7.85;6.00;;;;;;;15.83;74.80;99770.09;4964653;28;20026;-93
2022/06/16 02:07:26;;;;;;;7.63;5.88;;;;;;;15.83;74.92;99772.81;4964733;28;20026;-93
2022/06/16 02:09:56;;;;;;;12.32;6.30;;;;;;;15.79;75.29;99766.34;4964909;28;20492;-93
2022/06/16 02:15:11;;;;;;;15.15;6.05;;;;;;;15.83;74.74;99759.22;4985834;28;20072;-93
2022/06/16 02:17:37;;;;;;;9.38;6.82;;;;;;;15.66;74.73;99746.13;4981017;28;20034;-94
2022/06/16 02:20:02;;;;;;;15.00;6.60;;;;;;;15.70;74.76;99758.03;4964722;28;20084;-94
2022/06/16 02:22:28;;;;;;;11.18;5.88;;;;;;;15.70;74.67;99760.75;4964386;28;20037;-93
2022/06/16 02:24:53;;;;;;;12.15;6.13;;;;;;;15.74;74.79;99764.50;4965071;28;20022;-93
2022/06/16 02:27:19;;;;;;;9.45;5.97;;;;;;;15.67;74.87;99758.63;4963879;28;20108;-93
2022/06/16 02:29:45;;;;;;;9.98;5.97;;;;;;;15.66;75.09;99780.63;4964193;28;20037;-93
2022/06/16 02:32:15;;;;;;;12.60;5.85;;;;;;;15.69;75.06;99778.16;4980447;28;20419;-95
2022/06/16 02:35:09;;;;;;;9.23;5.95;;;;;;;15.64;75.20;99780.91;4980108;28;20470;-93
2022/06/16 02:37:56;;;;;;;8.70;6.13;;;;;;;15.62;75.17;99780.41;4996276;28;20029;-93
2022/06/16 02:40:36;;;;;;;7.60;5.53;;;;;;;15.43;75.25;99755.16;4996428;28;20119;-93
2022/06/16 02:43:02;;;;;;;9.10;5.90;;;;;;;15.63;75.44;99783.94;4963958;28;20030;-93
2022/06/16 02:45:33;;;;;;;12.93;5.97;;;;;;;15.56;75.50;99782.38;4996499;28;20373;-94
2022/06/16 02:48:37;;;;;;;9.07;5.63;;;;;;;15.60;75.40;99795.38;4996263;28;20120;-93
2022/06/16 02:51:12;;;;;;;13.18;6.07;;;;;;;15.55;75.41;99785.38;4957285;28;20037;-93
2022/06/16 02:56:21;;;;;;;11.27;6.38;;;;;;;15.58;75.12;99795.66;4982726;28;20030;-92
2022/06/16 02:58:47;;;;;;;6.78;5.60;;;;;;;15.68;74.46;99792.81;4996652;28;20068;-93
2022/06/16 03:01:12;;;;;;;9.48;6.22;;;;;;;15.50;75.00;99766.44;4965075;28;20025;-93
2022/06/16 03:03:38;;;;;;;9.20;5.75;;;;;;;15.52;74.79;99767.78;4964151;28;20029;-93
2022/06/16 03:06:04;;;;;;;13.77;6.32;;;;;;;15.55;75.06;99774.53;4964706;28;20022;-94
2022/06/16 03:08:30;;;;;;;7.22;5.82;;;;;;;15.56;75.09;99771.53;4964158;28;20055;-94
2022/06/16 03:10:58;;;;;;;11.23;5.72;;;;;;;15.66;74.78;99772.47;4965100;28;20044;-93
2022/06/16 03:13:29;;;;;;;6.18;5.57;;;;;;;15.56;74.00;99760.69;4964406;28;20034;-92
2022/06/16 03:15:56;;;;;;;12.02;5.75;;;;;;;15.73;73.22;99762.13;4965175;28;20116;-93
2022/06/16 03:18:22;;;;;;;8.48;5.57;;;;;;;16.10;72.75;99779.47;4964337;28;20040;-93
2022/06/16 03:20:48;;;;;;;9.13;5.57;;;;;;;15.94;73.19;99773.50;4964982;28;20026;-92
2022/06/16 03:23:13;;;;;;;6.88;5.63;;;;;;;16.09;72.18;99772.44;4965804;28;20025;-93
2022/06/16 03:25:39;;;;;;;8.73;5.07;;;;;;;16.08;71.07;99762.66;4964292;28;20018;-94
2022/06/16 03:28:05;;;;;;;9.60;5.57;;;;;;;16.09;72.79;99791.47;4963570;28;20026;-92
2022/06/16 03:30:31;;;;;;;12.02;5.72;;;;;;;15.76;72.87;99775.09;4979742;28;20071;-93
2022/06/16 03:32:57;;;;;;;8.43;5.95;;;;;;;15.71;73.69;99777.84;4963845;28;20080;-94
2022/06/16 03:35:22;;;;;;;13.98;6.47;;;;;;;15.70;73.46;99765.38;4996400;28;20090;-94
2022/06/16 03:37:53;;;;;;;13.13;6.57;;;;;;;15.84;73.24;99779.88;4964380;28;20022;-93
2022/06/16 03:40:20;;;;;;;19.40;6.80;;;;;;;15.85;73.06;99767.09;4964365;28;20095;-92
2022/06/16 03:42:47;;;;;;;20.40;7.28;;;;;;;15.95;72.75;99794.91;4981163;28;20029;-93
2022/06/16 03:45:12;;;;;;;15.30;7.53;;;;;;;15.91;72.85;99777.56;4966307;28;20022;-93
2022/06/16 03:47:38;;;;;;;17.17;6.85;;;;;;;15.89;73.26;99785.22;4963061;28;20064;-93
2022/06/16 03:50:05;;;;;;;13.85;6.90;;;;;;;15.73;73.34;99779.22;4963164;28;20026;-93
2022/06/16 03:52:30;;;;;;;15.02;7.88;;;;;;;15.65;73.93;99777.13;4963317;28;20029;-92
2022/06/16 03:54:56;;;;;;;22.45;7.95;;;;;;;15.73;73.92;99781.13;4966333;28;20563;-94
2022/06/16 03:57:22;;;;;;;22.23;8.55;;;;;;;15.74;73.91;99785.44;4979225;28;20022;-91
2022/06/16 03:59:47;;;;;;;22.35;8.80;;;;;;;15.83;73.83;99793.72;4979217;28;20084;-92
2022/06/16 04:02:13;;;;;;;23.83;10.48;;;;;;;15.71;73.84;99792.22;4963223;28;20018;-94
2022/06/16 04:04:38;;;;;;;31.65;8.10;;;;;;;15.79;74.65;99801.66;4947989;28;20401;-93
2022/06/16 04:07:04;;;;;;;23.05;8.68;;;;;;;15.78;74.16;99783.75;4980645;28;20543;-93
2022/06/16 04:09:30;;;;;;;11.85;6.70;;;;;;;15.90;73.30;99780.59;4963582;28;20105;-93
2022/06/16 04:11:55;;;;;;;14.32;5.57;;;;;;;15.96;72.12;99782.16;4980226;28;20034;-95
2022/06/16 04:14:21;;;;;;;9.52;5.80;;;;;;;16.02;71.95;99772.00;4952477;29;20568;-93
2022/06/16 04:16:49;;;;;;;11.30;5.28;;;;;;;16.22;71.24;99785.28;4956806;29;20039;-93
2022/06/16 04:19:19;;;;;;;6.50;4.80;;;;;;;16.17;70.80;99769.06;4926264;29;20489;-95
2022/06/16 04:21:48;;;;;;;14.40;5.35;;;;;;;16.33;70.90;99778.59;4941401;29;20410;-93
2022/06/16 04:24:14;;;;;;;9.82;5.47;;;;;;;16.38;70.88;99782.31;4926041;29;20454;-94
2022/06/16 04:26:39;;;;;;;10.88;5.50;;;;;;;16.52;70.64;99780.47;4925105;29;20028;-93
2022/06/16 04:29:05;;;;;;;15.13;5.80;;;;;;;16.57;70.46;99783.06;4940860;28;20031;-91
2022/06/16 04:31:32;;;;;;;10.52;5.88;;;;;;;16.67;69.94;99796.50;4924415;29;20027;-94
2022/06/16 04:33:57;;;;;;;10.32;5.90;;;;;;;16.60;69.78;99787.94;4943430;28;20031;-90
2022/06/16 04:36:23;;;;;;;8.63;5.07;;;;;;;16.66;69.75;99775.84;4940423;29;20046;-92
2022/06/16 04:38:48;;;;;;;8.68;4.97;;;;;;;16.77;69.68;99784.63;4970730;28;20070;-94
2022/06/16 04:41:15;;;;;;;11.82;5.38;;;;;;;16.89;69.14;99773.28;4940773;29;20031;-93
2022/06/16 04:43:40;;;;;;;11.55;5.28;;;;;;;17.07;68.92;99787.91;4940307;29;20037;-93
2022/06/16 04:46:06;;;;;;;10.27;5.43;;;;;;;17.24;68.21;99792.75;4959659;28;20027;-91
2022/06/16 04:48:32;;;;;;;8.75;5.53;;;;;;;17.34;67.98;99776.22;4944141;28;20496;-92
2022/06/16 04:50:58;;;;;;;10.10;5.65;;;;;;;17.37;67.82;99765.53;4943814;28;20109;-92
2022/06/16 04:53:23;;;;;;;13.55;5.35;;;;;;;17.52;67.37;99797.09;4943012;28;20046;-91
2022/06/16 04:55:53;;;;;;;12.32;5.55;;;;;;;17.61;67.38;99796.38;4942645;28;20093;-92
2022/06/16 04:58:19;;;;;;;7.88;5.00;;;;;;;17.57;66.29;99782.56;4955738;28;20030;-90
2022/06/16 05:00:47;;;;;;;8.80;4.65;;;;;;;17.76;66.10;99791.41;4930964;29;20042;-91
2022/06/16 05:03:12;;;;;;;13.43;4.78;;;;;;;17.77;65.87;99778.59;4939668;29;20027;-92
2022/06/16 05:05:38;;;;;;;6.30;4.78;;;;;;;17.93;65.40;99795.44;4954573;28;20098;-93
2022/06/16 05:08:04;;;;;;;11.02;5.20;;;;;;;17.85;65.61;99788.78;4955009;29;20042;-92
2022/06/16 05:10:29;;;;;;;11.88;6.50;;;;;;;18.02;65.09;99785.41;4940358;28;20549;-94
2022/06/16 05:12:55;;;;;;;13.55;5.43;;;;;;;18.01;65.50;99786.50;4955217;29;20026;-92
2022/06/16 05:15:21;;;;;;;6.55;4.60;;;;;;;18.05;64.98;99789.44;4941817;28;20117;-92
2022/06/16 05:17:46;;;;;;;12.02;6.03;;;;;;;18.24;65.09;99795.53;4973754;28;20037;-94
2022/06/16 05:20:12;;;;;;;12.40;4.95;;;;;;;18.24;64.86;99768.28;4957992;28;20031;-90
2022/06/16 05:22:37;;;;;;;9.32;4.32;;;;;;;18.31;64.09;99784.19;4955525;28;20072;-91
2022/06/16 05:25:03;;;;;;;14.98;5.35;;;;;;;18.37;63.97;99772.03;4961101;28;20045;-91
2022/06/16 05:27:29;;;;;;;8.38;5.22;;;;;;;18.48;63.59;99772.59;4948961;28;20023;-91
2022/06/16 05:29:54;;;;;;;11.38;4.97;;;;;;;18.23;63.14;99777.56;4942467;28;20058;-90
2022/06/16 05:32:22;;;;;;;10.32;5.45;;;;;;;18.32;63.33;99770.25;4959916;28;20030;-91
2022/06/16 05:34:47;;;;;;;18.30;5.72;;;;;;;18.57;63.48;99776.16;4950704;28;20034;-92
2022/06/16 05:37:18;;;;;;;10.25;5.53;;;;;;;18.68;63.78;99768.53;4943219;28;20026;-94
2022/06/16 05:39:49;;;;;;;10.55;5.45;;;;;;;18.87;63.46;99784.72;4944564;28;20022;-93
2022/06/16 05:42:15;;;;;;;11.38;6.15;;;;;;;18.98;62.38;99777.84;4943686;28;20512;-91
2022/06/16 05:44:41;;;;;;;7.95;4.40;;;;;;;19.01;61.67;99777.25;4944678;28;20069;-91
2022/06/16 05:47:10;;;;;;;9.05;4.80;;;;;;;19.13;61.90;99773.91;4954872;28;20022;-94
2022/06/16 05:49:38;;;;;;;10.85;6.82;;;;;;;19.16;61.77;99771.34;4943504;28;20043;-91
2022/06/16 05:52:14;;;;;;;11.45;5.30;;;;;;;19.19;62.76;99767.16;4978970;28;20535;-92
2022/06/16 05:54:40;;;;;;;9.75;4.97;;;;;;;19.39;61.92;99776.72;4962045;28;20040;-91
2022/06/16 05:57:08;;;;;;;16.67;5.90;;;;;;;19.51;61.02;99765.19;4962675;28;20505;-93
2022/06/16 05:59:47;;;;;;;;;;;;;;;;;;;;;
2022/06/16 06:02:15;;;;;;;17.88;8.68;;;;;;;19.74;62.19;99777.63;4980283;28;20383;-92
2022/06/16 06:04:41;;;;;;;7.28;4.97;;;;;;;19.85;60.60;99772.63;4961256;28;20113;-92
2022/06/16 06:07:07;;;;;;;15.45;6.60;;;;;;;19.89;61.04;99770.88;4977465;28;20019;-93
2022/06/16 06:18:20;;;;;;;16.95;4.90;;;;;;;20.06;60.07;99777.47;4961220;28;20126;-95
2022/06/16 06:20:54;;;;;;;12.15;5.53;;;;;;;20.28;59.95;99796.44;4962825;28;20030;-96
2022/06/16 06:24:04;;;;;;;10.93;5.10;;;;;;;20.38;58.50;99773.44;4941642;29;20103;-94
2022/06/16 06:26:30;;;;;;;8.65;4.28;;;;;;;20.69;57.76;99799.78;4951868;29;20071;-93
2022/06/16 06:29:05;;;;;;;8.95;4.60;;;;;;;20.73;57.10;99784.31;4929839;29;20019;-93
2022/06/16 06:31:30;;;;;;;10.73;4.95;;;;;;;20.75;55.97;99782.06;4927007;29;20482;-92
2022/06/16 06:33:59;;;;;;;14.63;5.25;;;;;;;20.87;56.91;99798.59;4924120;29;20057;-94
2022/06/16 06:36:24;;;;;;;12.23;5.82;;;;;;;21.06;58.38;99805.63;4940691;29;20525;-93
2022/06/16 06:38:50;;;;;;;9.55;4.70;;;;;;;21.19;58.09;99791.72;4925343;29;20062;-94
2022/06/16 06:41:19;;;;;;;10.85;6.03;;;;;;;21.17;57.84;99783.03;4926079;29;20035;-93
2022/06/16 06:43:44;;;;;;;7.90;5.07;;;;;;;21.32;57.28;99778.13;4924413;29;20027;-93
2022/06/16 06:46:13;;;;;;;14.98;11.60;;;;;;;21.46;57.07;99777.91;4925239;29;20437;-93
2022/06/16 06:48:39;;;;;;;14.60;6.18;;;;;;;21.60;57.06;99783.94;4926769;29;20074;-95
2022/06/16 06:51:06;;;;;;;9.27;6.00;;;;;;;21.67;56.75;99773.28;4924518;29;20035;-93
2022/06/16 06:53:32;;;;;;;23.80;6.80;;;;;;;21.78;56.57;99773.69;4925205;29;20236;-94
2022/06/16 06:55:58;;;;;;;12.73;5.47;;;;;;;21.80;56.25;99780.41;4939338;29;20086;-92
2022/06/16 07:01:16;;;;;;;17.08;6.47;;;;;;;22.20;55.14;99807.38;5131605;23;20053;-95
2022/06/16 07:03:42;;;;;;;10.55;6.20;;;;;;;22.15;55.48;99784.84;4997938;28;20030;-95
2022/06/16 07:06:07;;;;;;;12.77;5.60;;;;;;;22.21;55.90;99764.28;4967606;28;20022;-93
2022/06/16 07:08:36;;;;;;;14.27;7.47;;;;;;;22.36;55.18;99768.38;4967754;28;20026;-95
2022/06/16 07:11:04;;;;;;;11.93;6.05;;;;;;;22.45;55.50;99774.56;4965956;28;20040;-94
2022/06/16 07:13:33;;;;;;;9.43;5.32;;;;;;;22.53;53.62;99773.69;4965565;28;20038;-93
2022/06/16 07:15:58;;;;;;;11.48;5.13;;;;;;;22.72;52.85;99803.38;4952721;28;20027;-89
2022/06/16 07:18:24;;;;;;;14.05;8.05;;;;;;;22.68;53.85;99777.75;4961678;28;20030;-93
2022/06/16 07:20:51;;;;;;;8.25;4.22;;;;;;;22.70;53.67;99777.38;4945352;28;20144;-94
2022/06/16 07:23:18;;;;;;;9.45;4.00;;;;;;;22.80;53.29;99793.41;4946489;28;20137;-94
2022/06/16 07:25:48;;;;;;;8.82;5.50;;;;;;;22.73;53.22;99752.81;4946119;28;20026;-93
2022/06/16 07:28:13;;;;;;;17.17;8.70;;;;;;;22.84;52.86;99760.59;4945312;28;20034;-92
2022/06/16 07:30:39;;;;;;;9.32;5.22;;;;;;;23.11;52.88;99770.94;4948001;28;20084;-92
2022/06/16 07:33:07;;;;;;;18.20;5.43;;;;;;;23.14;53.38;99762.03;4947463;28;20037;-93
2022/06/16 07:35:43;;;;;;;13.50;5.90;;;;;;;23.37;52.95;99780.81;4949713;28;20555;-94
2022/06/16 07:38:09;;;;;;;9.95;4.60;;;;;;;23.44;51.86;99775.50;4955578;28;20042;-95
2022/06/16 07:40:38;;;;;;;7.00;4.50;;;;;;;23.49;50.68;99757.97;4958001;28;20061;-94
2022/06/16 07:43:14;;;;;;;8.63;3.65;;;;;;;23.60;49.03;99756.38;4957855;28;20496;-95
2022/06/16 07:45:44;;;;;;;9.40;4.90;;;;;;;23.79;49.61;99772.28;4992522;28;20026;-96
2022/06/16 07:48:10;;;;;;;8.32;4.57;;;;;;;23.86;50.08;99760.69;4969203;28;20476;-94
2022/06/16 07:50:38;;;;;;;5.50;3.17;;;;;;;24.11;48.68;99777.91;4966914;28;20025;-94
2022/06/16 07:53:04;;;;;;;8.60;4.15;;;;;;;24.05;48.21;99757.31;4966835;28;20117;-92
2022/06/16 07:55:33;;;;;;;13.55;5.43;;;;;;;24.12;47.81;99755.56;4966035;28;20026;-93
2022/06/16 07:57:59;;;;;;;10.18;6.80;;;;;;;24.14;47.50;99752.47;4967762;28;20045;-93
2022/06/16 08:00:56;;;;;;;10.43;4.20;;;;;;;24.22;46.18;99765.28;4973459;28;20120;-94
2022/06/16 08:04:18;;;;;;;7.78;3.20;;;;;;;24.36;45.07;99759.34;4994877;28;20048;-95
2022/06/16 08:10:11;;;;;;;5.50;2.92;;;;;;;24.58;45.17;99756.03;4932558;29;20071;-94
2022/06/16 08:12:45;;;;;;;6.25;3.25;;;;;;;24.77;45.13;99779.34;4929842;29;20094;-95
2022/06/16 08:15:20;;;;;;;6.78;3.22;;;;;;;24.78;44.13;99780.94;4968291;28;20471;-94
2022/06/16 08:40:18;;;;;;;5.50;3.55;;;;;;;25.43;41.65;99766.78;5117005;23;20050;-95
2022/06/16 08:42:51;;;;;;;7.10;4.50;;;;;;;25.45;41.93;99766.44;4966122;28;20038;-90
2022/06/16 08:45:47;;;;;;;14.35;7.55;;;;;;;25.67;42.11;99782.31;4949365;28;20018;-92
2022/06/16 08:48:34;;;;;;;7.72;3.35;;;;;;;25.55;41.34;99746.59;4997690;28;20023;-90
2022/06/16 08:51:21;;;;;;;9.77;3.97;;;;;;;25.71;43.00;99754.78;4960790;28;20030;-92
2022/06/16 08:54:18;;;;;;;7.15;5.32;;;;;;;25.67;42.77;99775.97;4958985;28;20084;-90
2022/06/16 08:56:53;;;;;;;6.65;3.25;;;;;;;25.44;42.60;99751.84;4959714;28;20101;-91
2022/06/16 08:59:31;;;;;;;6.07;3.22;;;;;;;25.58;41.39;99776.97;4942617;28;20069;-92
2022/06/16 09:02:08;;;;;;;3.67;2.85;;;;;;;25.43;41.22;99766.00;4975294;28;20101;-91
2022/06/16 09:04:47;;;;;;;6.85;4.20;;;;;;;25.39;40.65;99749.38;4967847;28;20045;-92
2022/06/16 09:07:30;;;;;;;8.95;5.55;;;;;;;25.50;40.98;99757.88;4943461;28;20023;-92
2022/06/16 09:10:41;;;;;;;8.10;3.72;;;;;;;25.59;42.57;99759.28;4962722;28;20165;-91
2022/06/16 09:13:20;;;;;;;5.38;2.95;;;;;;;25.67;42.31;99745.63;4896908;29;20119;-93
2022/06/16 09:16:19;;;;;;;5.78;3.22;;;;;;;25.86;42.42;99764.97;4866198;29;20180;-91
2022/06/16 09:19:11;;;;;;;15.07;11.25;;;;;;;25.78;41.55;99743.94;4936247;28;20132;-92
2022/06/16 09:21:50;;;;;;;11.10;4.80;;;;;;;25.96;41.21;99764.44;4936910;28;20038;-93
2022/06/16 09:24:40;;;;;;;7.68;3.10;;;;;;;26.07;41.80;99766.63;4958869;28;20511;-90
2022/06/16 09:27:19;;;;;;;7.35;3.72;;;;;;;26.16;42.52;99759.69;4965492;28;20026;-92
2022/06/16 09:29:50;;;;;;;7.38;3.42;;;;;;;26.24;41.48;99763.41;4947325;28;20035;-94
2022/06/16 09:32:15;;;;;;;;;;;;;;;26.27;40.28;99759.09;4969169;28;20117;-93
2022/06/16 09:34:52;;;;;;;4.93;3.40;;;;;;;26.18;37.14;99740.03;4966513;28;19957;-93
2022/06/16 09:37:23;;;;;;;5.78;2.72;;;;;;;26.31;37.27;99749.72;4976833;28;20477;-94
2022/06/16 09:40:02;;;;;;;4.70;2.63;;;;;;;26.12;37.89;99730.44;4932142;28;1243614;-92
2022/06/16 09:43:25;;;;;;;10.90;4.57;;;;;;;26.09;40.17;99725.66;4952853;28;20404;-94
2022/06/16 09:46:24;;;;;;;;;;;;;;;;;;;;;
2022/06/16 09:49:11;;;;;;;8.50;4.43;;;;;;;26.24;40.04;99730.28;4905276;29;20119;-96
2022/06/16 09:51:57;;;;;;;5.88;4.00;;;;;;;26.44;40.14;99739.34;4898029;29;20512;-92
2022/06/16 09:55:34;;;;;;;9.98;3.20;;;;;;;26.65;38.57;99747.22;4940040;28;20460;-96
2022/06/16 10:09:23;;;;;;;;;;;;;;;;;;;;;
2022/06/16 10:11:47;;;;;;;5.68;4.18;;;;;;;26.93;37.59;99718.47;4895863;28;20032;-96
2022/06/16 10:14:51;;;;;;;4.47;3.33;;;;;;;27.07;36.13;99724.22;4955471;28;20033;-92
2022/06/16 10:17:20;;;;;;;8.15;2.90;;;;;;;27.09;35.99;99724.66;4901287;29;20073;-95
2022/06/16 10:19:49;;;;;;;4.32;2.60;;;;;;;27.20;35.85;99725.59;4953395;28;20081;-96
2022/06/16 10:22:27;;;;;;;7.70;3.10;;;;;;;27.33;35.45;99720.72;4950583;28;20413;-95
2022/06/16 10:29:10;;;;;;;9.40;3.50;;;;;;;27.39;33.87;99724.75;4963133;28;20045;-94
2022/06/16 10:32:03;;;;;;;5.90;2.70;;;;;;;27.41;34.39;99736.22;5100486;23;20062;-96
2022/06/16 10:34:40;;;;;;;7.00;2.70;;;;;;;27.41;35.54;99733.47;4986199;28;20045;-96
2022/06/16 10:37:47;;;;;;;3.72;2.40;;;;;;;26.99;35.54;99700.41;4987385;28;20043;-95
2022/06/16 10:40:18;;;;;;;8.25;2.60;;;;;;;27.24;36.42;99711.06;4990217;28;20023;-96
2022/06/16 10:43:05;;;;;;;;;;;;;;;;;;;;;
2022/06/16 10:45:51;;;;;;;11.60;4.45;;;;;;;27.35;37.79;99703.72;4986440;28;20066;-94
2022/06/16 10:49:04;;;;;;;3.53;2.70;;;;;;;27.52;36.54;99714.25;4938931;29;20027;-96
2022/06/16 10:52:08;;;;;;;;;;;;;;;;;;;;;
2022/06/16 10:55:15;;;;;;;5.30;3.47;;;;;;;27.34;36.13;99688.31;4918791;29;20510;-96
2022/06/16 10:58:06;;;;;;;7.00;5.70;;;;;;;27.42;35.86;99673.41;4895856;29;20128;-96
2022/06/16 11:00:48;;;;;;;5.65;4.07;;;;;;;27.63;36.00;99700.56;4876374;29;20403;-96
2022/06/16 11:03:16;;;;;;;6.72;2.70;;;;;;;27.64;35.54;99682.75;4882040;29;20047;-95
2022/06/16 11:22:18;;;;;;;5.13;3.03;;;;;;;27.89;34.07;99680.34;4989512;28;20030;-95
2022/06/16 11:36:39;;;;;;;8.35;3.20;;;;;;;28.40;33.31;99685.19;4956018;29;20094;-94
2022/06/16 11:39:27;;;;;;;5.35;2.80;;;;;;;28.28;32.13;99674.41;5002627;28;20112;-93
2022/06/16 11:41:56;;;;;;;6.40;2.47;;;;;;;28.27;32.60;99663.72;4991398;28;20026;-93
2022/06/16 11:44:52;;;;;;;4.40;2.10;;;;;;;28.23;31.69;99654.59;4979351;28;20037;-93
2022/06/16 11:47:30;;;;;;;5.65;2.42;;;;;;;28.49;31.96;99668.28;4967329;28;20409;-91
2022/06/16 11:50:01;;;;;;;5.65;2.30;;;;;;;28.55;31.57;99675.06;4992411;28;20029;-90
2022/06/16 11:52:50;;;;;;;3.35;2.00;;;;;;;28.49;31.83;99653.63;4999177;28;20097;-93
2022/06/16 11:55:42;;;;;;;5.75;2.53;;;;;;;28.69;32.38;99654.22;4998807;28;20089;-93
2022/06/16 11:58:16;;;;;;;6.75;2.35;;;;;;;28.74;30.93;99667.69;4968859;28;20072;-93
2022/06/16 12:00:49;;;;;;;4.28;1.92;;;;;;;28.57;30.79;99667.16;4983499;28;20026;-93
2022/06/16 12:03:25;;;;;;;3.83;2.05;;;;;;;28.70;30.69;99670.47;4963435;28;20027;-95
2022/06/16 12:06:09;;;;;;;3.97;2.28;;;;;;;28.78;30.12;99682.38;4949560;28;20034;-93
2022/06/16 12:08:47;;;;;;;6.13;2.45;;;;;;;28.81;30.07;99673.31;4982123;28;20030;-96
2022/06/16 12:11:27;;;;;;;3.83;2.08;;;;;;;28.44;29.87;99657.53;4982162;28;20026;-94
2022/06/16 12:13:53;;;;;;;3.92;2.00;;;;;;;28.41;30.08;99663.88;4980675;28;20116;-93
2022/06/16 12:16:21;;;;;;;2.92;1.80;;;;;;;28.43;29.91;99664.28;4981214;28;20042;-92
2022/06/16 12:18:53;;;;;;;5.10;2.60;;;;;;;28.48;30.76;99655.59;4964334;28;20038;-94
2022/06/16 12:21:27;;;;;;;8.57;2.72;;;;;;;28.68;31.64;99658.16;4967788;28;20038;-95
2022/06/16 12:24:15;;;;;;;4.20;1.85;;;;;;;28.84;29.97;99669.75;4985222;28;20109;-96
2022/06/16 12:26:51;;;;;;;4.18;2.05;;;;;;;28.96;30.19;99650.03;4966359;28;20026;-93
2022/06/16 12:29:24;;;;;;;4.13;2.47;;;;;;;29.01;29.45;99641.38;4985537;28;20033;-96
2022/06/16 12:32:17;;;;;;;6.50;2.90;;;;;;;29.21;28.64;99657.75;4980370;28;20097;-95
2022/06/16 12:34:48;;;;;;;2.90;1.83;;;;;;;29.35;27.48;99629.28;4981533;28;20118;-93
2022/06/16 12:37:18;;;;;;;4.63;1.92;;;;;;;29.53;28.13;99627.38;4963379;28;20125;-93
2022/06/16 12:39:46;;;;;;;7.38;3.25;;;;;;;29.67;28.46;99623.06;4948890;28;20049;-93
2022/06/16 12:42:23;;;;;;;4.35;2.50;;;;;;;29.88;28.67;99631.47;4987933;28;20592;-94
2022/06/16 12:45:00;;;;;;;7.82;3.30;;;;;;;30.08;29.37;99650.56;4964179;28;20049;-92
2022/06/16 12:47:34;;;;;;;2.83;1.65;;;;;;;30.01;26.27;99634.69;4962549;28;20050;-93
2022/06/16 12:50:13;;;;;;;4.93;2.03;;;;;;;30.08;28.58;99631.91;4965109;28;20105;-92
2022/06/16 12:52:59;;;;;;;3.22;2.20;;;;;;;29.95;29.26;99625.16;4983416;28;20034;-90
2022/06/16 12:55:40;;;;;;;2.50;1.83;;;;;;;30.03;28.54;99615.66;4987269;28;20072;-94
2022/06/16 12:58:14;;;;;;;4.22;1.75;;;;;;;30.03;29.41;99612.88;4985640;28;20029;-94
2022/06/16 13:00:43;;;;;;;3.78;2.00;;;;;;;30.09;28.85;99602.16;4967417;28;20483;-93
2022/06/16 13:03:47;;;;;;;4.30;3.05;;;;;;;30.44;29.35;99625.63;4949485;28;20147;-94
2022/06/16 13:06:16;;;;;;;3.80;2.40;;;;;;;30.56;28.04;99616.88;4997518;28;20480;-92
2022/06/16 13:08:43;;;;;;;8.80;2.63;;;;;;;30.68;28.06;99615.69;4985218;28;20472;-96
2022/06/16 13:11:21;;;;;;;5.55;1.95;;;;;;;30.63;27.11;99605.75;4967389;28;20554;-94
2022/06/16 13:14:12;;;;;;;5.13;2.00;;;;;;;30.59;27.72;99600.22;4983077;28;20026;-95
2022/06/16 13:16:41;;;;;;;3.47;1.98;;;;;;;30.76;26.97;99606.94;4968026;28;20046;-93
2022/06/16 13:19:32;;;;;;;5.35;2.00;;;;;;;30.89;27.42;99601.75;4961725;28;20420;-92
2022/06/16 13:22:05;;;;;;;5.32;2.72;;;;;;;31.13;26.85;99619.59;4983820;28;20113;-94
2022/06/16 13:24:37;;;;;;;8.82;2.85;;;;;;;31.19;27.45;99619.94;4967735;28;20037;-92
2022/06/16 13:27:23;;;;;;;3.38;1.80;;;;;;;31.18;26.50;99598.91;4980988;28;20033;-89
2022/06/16 13:30:01;;;;;;;4.72;3.20;;;;;;;31.36;27.44;99621.88;4984234;28;20052;-89
2022/06/16 13:32:48;;;;;;;3.13;2.10;;;;;;;31.20;27.52;99613.97;4988777;28;20055;-90
2022/06/16 13:35:22;;;;;;;5.32;2.00;;;;;;;31.79;26.91;99616.13;4975117;28;20030;-91
2022/06/16 13:37:49;;;;;;;3.75;2.50;;;;;;;31.81;26.84;99593.44;4974809;28;20122;-90
2022/06/16 13:40:35;;;;;;;4.82;2.17;;;;;;;32.19;26.45;99588.81;4958476;28;20035;-94